<?xml version="1.0" encoding="UTF-8" standalone="no" ?>
<gpx xmlns="http://www.topografix.com/GPX/1/1" xmlns:xsi="http://www.w3.org/2001/XMLSchema-instance" xsi:schemaLocation="http://www.topografix.com/GPX/1/1 http://www.topografix.com/GPX/1/1/gpx.xsd" version="1.1" creator="VisuGPX - https://www.visugpx.com">
  <metadata>
    <name>La Mole.Tour de lac de la Verne</name>
    <desc><![CDATA[Départ de barrage de la Verne : y accéder en voiture ou à pieds du centre du village par le chemin St Julien(usine de la Verne,Lotissement le moulin Roux)4kms. Boucle jusque la route D14: Capelude,col du Pèrier.Retour par piste le Laïré jusqu\\\'au centre du village.Attention passage à guet.]]></desc>
  </metadata>
  <trk>
    <name><![CDATA[22 févr. 2015 10:05:09]]></name>
    <cmt><![CDATA[22 févr. 2015 10:05:09]]></cmt>
    <trkseg>
      <trkpt lat="43.22551" lon="6.44962">
        <ele>83.7</ele>
        <time>2015-02-22T09:04:57Z</time>
      </trkpt>
      <trkpt lat="43.22543" lon="6.44933">
        <ele>87</ele>
        <time>2015-02-22T09:06:10Z</time>
      </trkpt>
      <trkpt lat="43.22561" lon="6.44914">
        <ele>92</ele>
        <time>2015-02-22T09:06:24Z</time>
      </trkpt>
      <trkpt lat="43.22571" lon="6.44874">
        <ele>95</ele>
        <time>2015-02-22T09:06:40Z</time>
      </trkpt>
      <trkpt lat="43.22579" lon="6.4484">
        <ele>90</ele>
        <time>2015-02-22T09:07:17Z</time>
      </trkpt>
      <trkpt lat="43.22572" lon="6.4481">
        <ele>88</ele>
        <time>2015-02-22T09:07:37Z</time>
      </trkpt>
      <trkpt lat="43.22585" lon="6.44784">
        <ele>89</ele>
        <time>2015-02-22T09:08:04Z</time>
      </trkpt>
      <trkpt lat="43.22601" lon="6.44761">
        <ele>89</ele>
        <time>2015-02-22T09:08:24Z</time>
      </trkpt>
      <trkpt lat="43.22608" lon="6.44729">
        <ele>89</ele>
        <time>2015-02-22T09:08:46Z</time>
      </trkpt>
      <trkpt lat="43.226" lon="6.44699">
        <ele>89</ele>
        <time>2015-02-22T09:09:05Z</time>
      </trkpt>
      <trkpt lat="43.22578" lon="6.44645">
        <ele>88</ele>
        <time>2015-02-22T09:09:49Z</time>
      </trkpt>
      <trkpt lat="43.22568" lon="6.44617">
        <ele>87</ele>
        <time>2015-02-22T09:10:07Z</time>
      </trkpt>
      <trkpt lat="43.22576" lon="6.44583">
        <ele>88</ele>
        <time>2015-02-22T09:10:39Z</time>
      </trkpt>
      <trkpt lat="43.2258" lon="6.44551">
        <ele>89</ele>
        <time>2015-02-22T09:10:56Z</time>
      </trkpt>
      <trkpt lat="43.22569" lon="6.44523">
        <ele>88</ele>
        <time>2015-02-22T09:11:10Z</time>
      </trkpt>
      <trkpt lat="43.22554" lon="6.44499">
        <ele>87</ele>
        <time>2015-02-22T09:11:26Z</time>
      </trkpt>
      <trkpt lat="43.22552" lon="6.44437">
        <ele>87</ele>
        <time>2015-02-22T09:12:07Z</time>
      </trkpt>
      <trkpt lat="43.22593" lon="6.44408">
        <ele>86</ele>
        <time>2015-02-22T09:12:41Z</time>
      </trkpt>
      <trkpt lat="43.22655" lon="6.44355">
        <ele>89</ele>
        <time>2015-02-22T09:13:26Z</time>
      </trkpt>
      <trkpt lat="43.22664" lon="6.44326">
        <ele>90</ele>
        <time>2015-02-22T09:13:49Z</time>
      </trkpt>
      <trkpt lat="43.22667" lon="6.44295">
        <ele>90</ele>
        <time>2015-02-22T09:14:18Z</time>
      </trkpt>
      <trkpt lat="43.2266" lon="6.44233">
        <ele>92</ele>
        <time>2015-02-22T09:15:04Z</time>
      </trkpt>
      <trkpt lat="43.22642" lon="6.44211">
        <ele>93</ele>
        <time>2015-02-22T09:15:24Z</time>
      </trkpt>
      <trkpt lat="43.22637" lon="6.4418">
        <ele>94</ele>
        <time>2015-02-22T09:15:53Z</time>
      </trkpt>
      <trkpt lat="43.2262" lon="6.44156">
        <ele>94</ele>
        <time>2015-02-22T09:16:08Z</time>
      </trkpt>
      <trkpt lat="43.22599" lon="6.44139">
        <ele>94</ele>
        <time>2015-02-22T09:16:23Z</time>
      </trkpt>
      <trkpt lat="43.22587" lon="6.44113">
        <ele>96</ele>
        <time>2015-02-22T09:16:47Z</time>
      </trkpt>
      <trkpt lat="43.22552" lon="6.44073">
        <ele>97</ele>
        <time>2015-02-22T09:17:30Z</time>
      </trkpt>
      <trkpt lat="43.22531" lon="6.44057">
        <ele>97</ele>
        <time>2015-02-22T09:17:46Z</time>
      </trkpt>
      <trkpt lat="43.22508" lon="6.44047">
        <ele>97</ele>
        <time>2015-02-22T09:18:06Z</time>
      </trkpt>
      <trkpt lat="43.22517" lon="6.44018">
        <ele>97</ele>
        <time>2015-02-22T09:18:36Z</time>
      </trkpt>
      <trkpt lat="43.22529" lon="6.43991">
        <ele>96</ele>
        <time>2015-02-22T09:18:57Z</time>
      </trkpt>
      <trkpt lat="43.22534" lon="6.43961">
        <ele>96</ele>
        <time>2015-02-22T09:19:13Z</time>
      </trkpt>
      <trkpt lat="43.22523" lon="6.43931">
        <ele>94</ele>
        <time>2015-02-22T09:19:33Z</time>
      </trkpt>
      <trkpt lat="43.22506" lon="6.43908">
        <ele>94</ele>
        <time>2015-02-22T09:19:46Z</time>
      </trkpt>
      <trkpt lat="43.22486" lon="6.43891">
        <ele>94</ele>
        <time>2015-02-22T09:20:00Z</time>
      </trkpt>
      <trkpt lat="43.22488" lon="6.43926">
        <ele>122</ele>
        <time>2015-02-22T09:21:05Z</time>
      </trkpt>
      <trkpt lat="43.22515" lon="6.43931">
        <ele>121</ele>
        <time>2015-02-22T09:21:14Z</time>
      </trkpt>
      <trkpt lat="43.22586" lon="6.43936">
        <ele>109</ele>
        <time>2015-02-22T09:21:52Z</time>
      </trkpt>
      <trkpt lat="43.22608" lon="6.43941">
        <ele>108</ele>
        <time>2015-02-22T09:22:06Z</time>
      </trkpt>
      <trkpt lat="43.22652" lon="6.4396">
        <ele>112</ele>
        <time>2015-02-22T09:22:50Z</time>
      </trkpt>
      <trkpt lat="43.22672" lon="6.43945">
        <ele>114</ele>
        <time>2015-02-22T09:23:09Z</time>
      </trkpt>
      <trkpt lat="43.22712" lon="6.43912">
        <ele>111</ele>
        <time>2015-02-22T09:23:37Z</time>
      </trkpt>
      <trkpt lat="43.22726" lon="6.43887">
        <ele>109</ele>
        <time>2015-02-22T09:23:58Z</time>
      </trkpt>
      <trkpt lat="43.22745" lon="6.43828">
        <ele>104</ele>
        <time>2015-02-22T09:24:44Z</time>
      </trkpt>
      <trkpt lat="43.22761" lon="6.43805">
        <ele>102</ele>
        <time>2015-02-22T09:25:03Z</time>
      </trkpt>
      <trkpt lat="43.22795" lon="6.43764">
        <ele>101</ele>
        <time>2015-02-22T09:25:44Z</time>
      </trkpt>
      <trkpt lat="43.22794" lon="6.43728">
        <ele>100</ele>
        <time>2015-02-22T09:26:06Z</time>
      </trkpt>
      <trkpt lat="43.22808" lon="6.43667">
        <ele>99</ele>
        <time>2015-02-22T09:26:50Z</time>
      </trkpt>
      <trkpt lat="43.22827" lon="6.43684">
        <ele>100</ele>
        <time>2015-02-22T09:27:38Z</time>
      </trkpt>
      <trkpt lat="43.22851" lon="6.43683">
        <ele>100</ele>
        <time>2015-02-22T09:27:53Z</time>
      </trkpt>
      <trkpt lat="43.22873" lon="6.43692">
        <ele>100</ele>
        <time>2015-02-22T09:28:15Z</time>
      </trkpt>
      <trkpt lat="43.22896" lon="6.43687">
        <ele>99</ele>
        <time>2015-02-22T09:28:35Z</time>
      </trkpt>
      <trkpt lat="43.2294" lon="6.43669">
        <ele>100</ele>
        <time>2015-02-22T09:29:20Z</time>
      </trkpt>
      <trkpt lat="43.22956" lon="6.43646">
        <ele>102</ele>
        <time>2015-02-22T09:29:41Z</time>
      </trkpt>
      <trkpt lat="43.22975" lon="6.43627">
        <ele>102</ele>
        <time>2015-02-22T09:29:59Z</time>
      </trkpt>
      <trkpt lat="43.22984" lon="6.43597">
        <ele>102</ele>
        <time>2015-02-22T09:30:19Z</time>
      </trkpt>
      <trkpt lat="43.22976" lon="6.43566">
        <ele>101</ele>
        <time>2015-02-22T09:30:40Z</time>
      </trkpt>
      <trkpt lat="43.22987" lon="6.43537">
        <ele>100</ele>
        <time>2015-02-22T09:31:03Z</time>
      </trkpt>
      <trkpt lat="43.22989" lon="6.435">
        <ele>101</ele>
        <time>2015-02-22T09:31:30Z</time>
      </trkpt>
      <trkpt lat="43.22988" lon="6.43468">
        <ele>100</ele>
        <time>2015-02-22T09:31:50Z</time>
      </trkpt>
      <trkpt lat="43.23002" lon="6.43442">
        <ele>99</ele>
        <time>2015-02-22T09:32:08Z</time>
      </trkpt>
      <trkpt lat="43.23009" lon="6.43411">
        <ele>100</ele>
        <time>2015-02-22T09:32:26Z</time>
      </trkpt>
      <trkpt lat="43.23009" lon="6.4338">
        <ele>99</ele>
        <time>2015-02-22T09:32:47Z</time>
      </trkpt>
      <trkpt lat="43.23009" lon="6.43349">
        <ele>99</ele>
        <time>2015-02-22T09:33:12Z</time>
      </trkpt>
      <trkpt lat="43.23026" lon="6.43328">
        <ele>99</ele>
        <time>2015-02-22T09:33:27Z</time>
      </trkpt>
      <trkpt lat="43.23032" lon="6.43263">
        <ele>98</ele>
        <time>2015-02-22T09:34:21Z</time>
      </trkpt>
      <trkpt lat="43.23073" lon="6.4323">
        <ele>98</ele>
        <time>2015-02-22T09:34:54Z</time>
      </trkpt>
      <trkpt lat="43.23089" lon="6.43207">
        <ele>98</ele>
        <time>2015-02-22T09:35:07Z</time>
      </trkpt>
      <trkpt lat="43.2309" lon="6.43177">
        <ele>97</ele>
        <time>2015-02-22T09:35:26Z</time>
      </trkpt>
      <trkpt lat="43.23074" lon="6.43151">
        <ele>97</ele>
        <time>2015-02-22T09:35:41Z</time>
      </trkpt>
      <trkpt lat="43.23061" lon="6.43125">
        <ele>96</ele>
        <time>2015-02-22T09:36:00Z</time>
      </trkpt>
      <trkpt lat="43.23074" lon="6.43099">
        <ele>96</ele>
        <time>2015-02-22T09:36:43Z</time>
      </trkpt>
      <trkpt lat="43.23119" lon="6.43082">
        <ele>97</ele>
        <time>2015-02-22T09:37:17Z</time>
      </trkpt>
      <trkpt lat="43.23132" lon="6.43053">
        <ele>96</ele>
        <time>2015-02-22T09:37:36Z</time>
      </trkpt>
      <trkpt lat="43.23147" lon="6.43029">
        <ele>96</ele>
        <time>2015-02-22T09:37:55Z</time>
      </trkpt>
      <trkpt lat="43.23153" lon="6.43">
        <ele>95</ele>
        <time>2015-02-22T09:38:16Z</time>
      </trkpt>
      <trkpt lat="43.23155" lon="6.42968">
        <ele>94</ele>
        <time>2015-02-22T09:38:36Z</time>
      </trkpt>
      <trkpt lat="43.23179" lon="6.42914">
        <ele>95</ele>
        <time>2015-02-22T09:39:17Z</time>
      </trkpt>
      <trkpt lat="43.23189" lon="6.42886">
        <ele>95</ele>
        <time>2015-02-22T09:39:36Z</time>
      </trkpt>
      <trkpt lat="43.23181" lon="6.42855">
        <ele>95</ele>
        <time>2015-02-22T09:39:53Z</time>
      </trkpt>
      <trkpt lat="43.23181" lon="6.42791">
        <ele>94</ele>
        <time>2015-02-22T09:40:34Z</time>
      </trkpt>
      <trkpt lat="43.23169" lon="6.4273">
        <ele>93</ele>
        <time>2015-02-22T09:41:19Z</time>
      </trkpt>
      <trkpt lat="43.23148" lon="6.42714">
        <ele>93</ele>
        <time>2015-02-22T09:41:41Z</time>
      </trkpt>
      <trkpt lat="43.23127" lon="6.427">
        <ele>94</ele>
        <time>2015-02-22T09:42:15Z</time>
      </trkpt>
      <trkpt lat="43.2312" lon="6.42671">
        <ele>94</ele>
        <time>2015-02-22T09:42:34Z</time>
      </trkpt>
      <trkpt lat="43.23113" lon="6.42609">
        <ele>95</ele>
        <time>2015-02-22T09:43:18Z</time>
      </trkpt>
      <trkpt lat="43.23103" lon="6.42548">
        <ele>93</ele>
        <time>2015-02-22T09:43:59Z</time>
      </trkpt>
      <trkpt lat="43.23096" lon="6.42486">
        <ele>92</ele>
        <time>2015-02-22T09:44:44Z</time>
      </trkpt>
      <trkpt lat="43.23116" lon="6.4247">
        <ele>110</ele>
        <time>2015-02-22T09:47:34Z</time>
      </trkpt>
      <trkpt lat="43.23132" lon="6.42493">
        <ele>93</ele>
        <time>2015-02-22T09:47:55Z</time>
      </trkpt>
      <trkpt lat="43.23146" lon="6.42518">
        <ele>98</ele>
        <time>2015-02-22T09:48:20Z</time>
      </trkpt>
      <trkpt lat="43.23156" lon="6.42546">
        <ele>94</ele>
        <time>2015-02-22T09:48:44Z</time>
      </trkpt>
      <trkpt lat="43.23174" lon="6.42565">
        <ele>92</ele>
        <time>2015-02-22T09:49:01Z</time>
      </trkpt>
      <trkpt lat="43.2321" lon="6.42605">
        <ele>93</ele>
        <time>2015-02-22T09:49:51Z</time>
      </trkpt>
      <trkpt lat="43.23254" lon="6.42622">
        <ele>93</ele>
        <time>2015-02-22T09:50:42Z</time>
      </trkpt>
      <trkpt lat="43.23291" lon="6.42658">
        <ele>93</ele>
        <time>2015-02-22T09:51:23Z</time>
      </trkpt>
      <trkpt lat="43.23329" lon="6.42695">
        <ele>92</ele>
        <time>2015-02-22T09:52:02Z</time>
      </trkpt>
      <trkpt lat="43.2335" lon="6.42709">
        <ele>93</ele>
        <time>2015-02-22T09:52:42Z</time>
      </trkpt>
      <trkpt lat="43.23398" lon="6.42724">
        <ele>94</ele>
        <time>2015-02-22T09:53:25Z</time>
      </trkpt>
      <trkpt lat="43.23419" lon="6.4271">
        <ele>94</ele>
        <time>2015-02-22T09:53:46Z</time>
      </trkpt>
      <trkpt lat="43.23437" lon="6.42686">
        <ele>94</ele>
        <time>2015-02-22T09:54:06Z</time>
      </trkpt>
      <trkpt lat="43.23479" lon="6.42655">
        <ele>96</ele>
        <time>2015-02-22T09:54:52Z</time>
      </trkpt>
      <trkpt lat="43.23523" lon="6.4263">
        <ele>98</ele>
        <time>2015-02-22T09:55:36Z</time>
      </trkpt>
      <trkpt lat="43.23569" lon="6.4262">
        <ele>100</ele>
        <time>2015-02-22T09:56:16Z</time>
      </trkpt>
      <trkpt lat="43.23615" lon="6.42616">
        <ele>104</ele>
        <time>2015-02-22T09:56:58Z</time>
      </trkpt>
      <trkpt lat="43.23661" lon="6.42605">
        <ele>106</ele>
        <time>2015-02-22T09:57:39Z</time>
      </trkpt>
      <trkpt lat="43.23682" lon="6.42594">
        <ele>106</ele>
        <time>2015-02-22T09:57:54Z</time>
      </trkpt>
      <trkpt lat="43.23689" lon="6.42564">
        <ele>105</ele>
        <time>2015-02-22T09:58:11Z</time>
      </trkpt>
      <trkpt lat="43.23686" lon="6.42533">
        <ele>104</ele>
        <time>2015-02-22T09:58:34Z</time>
      </trkpt>
      <trkpt lat="43.23674" lon="6.42506">
        <ele>103</ele>
        <time>2015-02-22T09:58:56Z</time>
      </trkpt>
      <trkpt lat="43.23643" lon="6.42459">
        <ele>103</ele>
        <time>2015-02-22T09:59:37Z</time>
      </trkpt>
      <trkpt lat="43.23616" lon="6.4241">
        <ele>103</ele>
        <time>2015-02-22T10:00:23Z</time>
      </trkpt>
      <trkpt lat="43.23602" lon="6.42349">
        <ele>103</ele>
        <time>2015-02-22T10:01:07Z</time>
      </trkpt>
      <trkpt lat="43.23597" lon="6.42288">
        <ele>105</ele>
        <time>2015-02-22T10:01:45Z</time>
      </trkpt>
      <trkpt lat="43.23593" lon="6.42226">
        <ele>104</ele>
        <time>2015-02-22T10:02:28Z</time>
      </trkpt>
      <trkpt lat="43.2359" lon="6.42163">
        <ele>103</ele>
        <time>2015-02-22T10:03:11Z</time>
      </trkpt>
      <trkpt lat="43.23604" lon="6.421">
        <ele>103</ele>
        <time>2015-02-22T10:03:51Z</time>
      </trkpt>
      <trkpt lat="43.23612" lon="6.42071">
        <ele>103</ele>
        <time>2015-02-22T10:04:10Z</time>
      </trkpt>
      <trkpt lat="43.23633" lon="6.42061">
        <ele>102</ele>
        <time>2015-02-22T10:04:25Z</time>
      </trkpt>
      <trkpt lat="43.23641" lon="6.42031">
        <ele>102</ele>
        <time>2015-02-22T10:04:48Z</time>
      </trkpt>
      <trkpt lat="43.23653" lon="6.42004">
        <ele>101</ele>
        <time>2015-02-22T10:05:09Z</time>
      </trkpt>
      <trkpt lat="43.23647" lon="6.41974">
        <ele>101</ele>
        <time>2015-02-22T10:05:23Z</time>
      </trkpt>
      <trkpt lat="43.23649" lon="6.41941">
        <ele>101</ele>
        <time>2015-02-22T10:05:43Z</time>
      </trkpt>
      <trkpt lat="43.23656" lon="6.41879">
        <ele>100</ele>
        <time>2015-02-22T10:06:23Z</time>
      </trkpt>
      <trkpt lat="43.23667" lon="6.41817">
        <ele>99</ele>
        <time>2015-02-22T10:07:02Z</time>
      </trkpt>
      <trkpt lat="43.2369" lon="6.41814">
        <ele>99</ele>
        <time>2015-02-22T10:07:47Z</time>
      </trkpt>
      <trkpt lat="43.23725" lon="6.41855">
        <ele>98</ele>
        <time>2015-02-22T10:08:30Z</time>
      </trkpt>
      <trkpt lat="43.23746" lon="6.41866">
        <ele>84</ele>
        <time>2015-02-22T10:11:25Z</time>
      </trkpt>
      <trkpt lat="43.23769" lon="6.41865">
        <ele>97</ele>
        <time>2015-02-22T10:11:52Z</time>
      </trkpt>
      <trkpt lat="43.23791" lon="6.41854">
        <ele>97</ele>
        <time>2015-02-22T10:12:20Z</time>
      </trkpt>
      <trkpt lat="43.23809" lon="6.41835">
        <ele>100</ele>
        <time>2015-02-22T10:13:05Z</time>
      </trkpt>
      <trkpt lat="43.23819" lon="6.41812">
        <ele>100</ele>
        <time>2015-02-22T10:13:22Z</time>
      </trkpt>
      <trkpt lat="43.23833" lon="6.41788">
        <ele>103</ele>
        <time>2015-02-22T10:13:45Z</time>
      </trkpt>
      <trkpt lat="43.23859" lon="6.41732">
        <ele>105</ele>
        <time>2015-02-22T10:14:26Z</time>
      </trkpt>
      <trkpt lat="43.23869" lon="6.41704">
        <ele>105</ele>
        <time>2015-02-22T10:14:52Z</time>
      </trkpt>
      <trkpt lat="43.23879" lon="6.41643">
        <ele>106</ele>
        <time>2015-02-22T10:15:35Z</time>
      </trkpt>
      <trkpt lat="43.23892" lon="6.41579">
        <ele>107</ele>
        <time>2015-02-22T10:16:25Z</time>
      </trkpt>
      <trkpt lat="43.23896" lon="6.41518">
        <ele>107</ele>
        <time>2015-02-22T10:17:07Z</time>
      </trkpt>
      <trkpt lat="43.23899" lon="6.41484">
        <ele>107</ele>
        <time>2015-02-22T10:17:33Z</time>
      </trkpt>
      <trkpt lat="43.23891" lon="6.41455">
        <ele>108</ele>
        <time>2015-02-22T10:17:58Z</time>
      </trkpt>
      <trkpt lat="43.23901" lon="6.41427">
        <ele>110</ele>
        <time>2015-02-22T10:18:39Z</time>
      </trkpt>
      <trkpt lat="43.23912" lon="6.41399">
        <ele>111</ele>
        <time>2015-02-22T10:19:02Z</time>
      </trkpt>
      <trkpt lat="43.23918" lon="6.41368">
        <ele>112</ele>
        <time>2015-02-22T10:19:26Z</time>
      </trkpt>
      <trkpt lat="43.23932" lon="6.41342">
        <ele>114</ele>
        <time>2015-02-22T10:19:59Z</time>
      </trkpt>
      <trkpt lat="43.23954" lon="6.41327">
        <ele>114</ele>
        <time>2015-02-22T10:20:24Z</time>
      </trkpt>
      <trkpt lat="43.23966" lon="6.41301">
        <ele>116</ele>
        <time>2015-02-22T10:20:40Z</time>
      </trkpt>
      <trkpt lat="43.23987" lon="6.41289">
        <ele>117</ele>
        <time>2015-02-22T10:20:59Z</time>
      </trkpt>
      <trkpt lat="43.24009" lon="6.413">
        <ele>117</ele>
        <time>2015-02-22T10:21:23Z</time>
      </trkpt>
      <trkpt lat="43.2403" lon="6.4129">
        <ele>119</ele>
        <time>2015-02-22T10:21:47Z</time>
      </trkpt>
      <trkpt lat="43.24052" lon="6.41282">
        <ele>119</ele>
        <time>2015-02-22T10:22:22Z</time>
      </trkpt>
      <trkpt lat="43.24073" lon="6.41291">
        <ele>118</ele>
        <time>2015-02-22T10:22:43Z</time>
      </trkpt>
      <trkpt lat="43.24108" lon="6.41332">
        <ele>116</ele>
        <time>2015-02-22T10:23:26Z</time>
      </trkpt>
      <trkpt lat="43.24108" lon="6.413">
        <ele>116</ele>
        <time>2015-02-22T10:23:53Z</time>
      </trkpt>
      <trkpt lat="43.24091" lon="6.41242">
        <ele>113</ele>
        <time>2015-02-22T10:24:46Z</time>
      </trkpt>
      <trkpt lat="43.24093" lon="6.4121">
        <ele>103</ele>
        <time>2015-02-22T10:30:04Z</time>
      </trkpt>
      <trkpt lat="43.24089" lon="6.41201">
        <ele>93</ele>
        <time>2015-02-22T10:30:43Z</time>
      </trkpt>
      <trkpt lat="43.24076" lon="6.41175">
        <ele>92</ele>
        <time>2015-02-22T10:36:49Z</time>
      </trkpt>
      <trkpt lat="43.24073" lon="6.41144">
        <ele>106</ele>
        <time>2015-02-22T10:37:11Z</time>
      </trkpt>
      <trkpt lat="43.24071" lon="6.41113">
        <ele>104</ele>
        <time>2015-02-22T10:37:49Z</time>
      </trkpt>
      <trkpt lat="43.24088" lon="6.4109">
        <ele>105</ele>
        <time>2015-02-22T10:38:14Z</time>
      </trkpt>
      <trkpt lat="43.24084" lon="6.41081">
        <ele>98</ele>
        <time>2015-02-22T10:40:25Z</time>
      </trkpt>
      <trkpt lat="43.24066" lon="6.41102">
        <ele>106</ele>
        <time>2015-02-22T10:40:51Z</time>
      </trkpt>
      <trkpt lat="43.24065" lon="6.41133">
        <ele>99</ele>
        <time>2015-02-22T10:41:16Z</time>
      </trkpt>
      <trkpt lat="43.24073" lon="6.41164">
        <ele>92</ele>
        <time>2015-02-22T10:41:34Z</time>
      </trkpt>
      <trkpt lat="43.24091" lon="6.41183">
        <ele>97</ele>
        <time>2015-02-22T10:41:57Z</time>
      </trkpt>
      <trkpt lat="43.24111" lon="6.412">
        <ele>101</ele>
        <time>2015-02-22T10:42:20Z</time>
      </trkpt>
      <trkpt lat="43.24134" lon="6.41201">
        <ele>104</ele>
        <time>2015-02-22T10:42:38Z</time>
      </trkpt>
      <trkpt lat="43.24156" lon="6.41191">
        <ele>106</ele>
        <time>2015-02-22T10:42:56Z</time>
      </trkpt>
      <trkpt lat="43.24175" lon="6.41174">
        <ele>106</ele>
        <time>2015-02-22T10:43:40Z</time>
      </trkpt>
      <trkpt lat="43.24198" lon="6.41168">
        <ele>129</ele>
        <time>2015-02-22T10:45:18Z</time>
      </trkpt>
      <trkpt lat="43.24221" lon="6.41166">
        <ele>134</ele>
        <time>2015-02-22T10:45:36Z</time>
      </trkpt>
      <trkpt lat="43.24244" lon="6.41173">
        <ele>136</ele>
        <time>2015-02-22T10:45:54Z</time>
      </trkpt>
      <trkpt lat="43.24265" lon="6.41185">
        <ele>133</ele>
        <time>2015-02-22T10:46:14Z</time>
      </trkpt>
      <trkpt lat="43.24288" lon="6.41192">
        <ele>132</ele>
        <time>2015-02-22T10:46:30Z</time>
      </trkpt>
      <trkpt lat="43.24304" lon="6.41214">
        <ele>131</ele>
        <time>2015-02-22T10:46:50Z</time>
      </trkpt>
      <trkpt lat="43.2432" lon="6.41238">
        <ele>128</ele>
        <time>2015-02-22T10:47:14Z</time>
      </trkpt>
      <trkpt lat="43.24333" lon="6.41266">
        <ele>127</ele>
        <time>2015-02-22T10:47:40Z</time>
      </trkpt>
      <trkpt lat="43.2435" lon="6.41323">
        <ele>127</ele>
        <time>2015-02-22T10:48:25Z</time>
      </trkpt>
      <trkpt lat="43.24363" lon="6.41349">
        <ele>129</ele>
        <time>2015-02-22T10:48:49Z</time>
      </trkpt>
      <trkpt lat="43.24347" lon="6.41377">
        <ele>129</ele>
        <time>2015-02-22T10:49:20Z</time>
      </trkpt>
      <trkpt lat="43.24305" lon="6.41404">
        <ele>130</ele>
        <time>2015-02-22T10:50:10Z</time>
      </trkpt>
      <trkpt lat="43.24268" lon="6.41439">
        <ele>133</ele>
        <time>2015-02-22T10:50:52Z</time>
      </trkpt>
      <trkpt lat="43.24258" lon="6.41468">
        <ele>134</ele>
        <time>2015-02-22T10:51:12Z</time>
      </trkpt>
      <trkpt lat="43.24224" lon="6.41511">
        <ele>136</ele>
        <time>2015-02-22T10:51:59Z</time>
      </trkpt>
      <trkpt lat="43.24188" lon="6.41553">
        <ele>139</ele>
        <time>2015-02-22T10:52:50Z</time>
      </trkpt>
      <trkpt lat="43.24166" lon="6.416">
        <ele>143</ele>
        <time>2015-02-22T10:53:29Z</time>
      </trkpt>
      <trkpt lat="43.24148" lon="6.41623">
        <ele>145</ele>
        <time>2015-02-22T10:53:55Z</time>
      </trkpt>
      <trkpt lat="43.24112" lon="6.41666">
        <ele>149</ele>
        <time>2015-02-22T10:54:42Z</time>
      </trkpt>
      <trkpt lat="43.24128" lon="6.41688">
        <ele>151</ele>
        <time>2015-02-22T10:55:19Z</time>
      </trkpt>
      <trkpt lat="43.24151" lon="6.41692">
        <ele>152</ele>
        <time>2015-02-22T10:55:43Z</time>
      </trkpt>
      <trkpt lat="43.24197" lon="6.41689">
        <ele>155</ele>
        <time>2015-02-22T10:56:29Z</time>
      </trkpt>
      <trkpt lat="43.24219" lon="6.41698">
        <ele>155</ele>
        <time>2015-02-22T10:56:51Z</time>
      </trkpt>
      <trkpt lat="43.2426" lon="6.41727">
        <ele>155</ele>
        <time>2015-02-22T10:57:31Z</time>
      </trkpt>
      <trkpt lat="43.24267" lon="6.41756">
        <ele>156</ele>
        <time>2015-02-22T10:57:53Z</time>
      </trkpt>
      <trkpt lat="43.24274" lon="6.41786">
        <ele>157</ele>
        <time>2015-02-22T10:58:21Z</time>
      </trkpt>
      <trkpt lat="43.24271" lon="6.41823">
        <ele>158</ele>
        <time>2015-02-22T10:58:53Z</time>
      </trkpt>
      <trkpt lat="43.24273" lon="6.41853">
        <ele>158</ele>
        <time>2015-02-22T10:59:21Z</time>
      </trkpt>
      <trkpt lat="43.24289" lon="6.41877">
        <ele>166</ele>
        <time>2015-02-22T11:03:18Z</time>
      </trkpt>
      <trkpt lat="43.24309" lon="6.41891">
        <ele>171</ele>
        <time>2015-02-22T11:03:41Z</time>
      </trkpt>
      <trkpt lat="43.24328" lon="6.41907">
        <ele>170</ele>
        <time>2015-02-22T11:04:05Z</time>
      </trkpt>
      <trkpt lat="43.24351" lon="6.41906">
        <ele>173</ele>
        <time>2015-02-22T11:04:33Z</time>
      </trkpt>
      <trkpt lat="43.2437" lon="6.41887">
        <ele>172</ele>
        <time>2015-02-22T11:05:27Z</time>
      </trkpt>
      <trkpt lat="43.2439" lon="6.41866">
        <ele>173</ele>
        <time>2015-02-22T11:05:52Z</time>
      </trkpt>
      <trkpt lat="43.24419" lon="6.41816">
        <ele>174</ele>
        <time>2015-02-22T11:06:32Z</time>
      </trkpt>
      <trkpt lat="43.24434" lon="6.4178">
        <ele>175</ele>
        <time>2015-02-22T11:07:21Z</time>
      </trkpt>
      <trkpt lat="43.24461" lon="6.41729">
        <ele>176</ele>
        <time>2015-02-22T11:07:54Z</time>
      </trkpt>
      <trkpt lat="43.24485" lon="6.41675">
        <ele>178</ele>
        <time>2015-02-22T11:08:57Z</time>
      </trkpt>
      <trkpt lat="43.24509" lon="6.41621">
        <ele>180</ele>
        <time>2015-02-22T11:09:49Z</time>
      </trkpt>
      <trkpt lat="43.24537" lon="6.4157">
        <ele>184</ele>
        <time>2015-02-22T11:10:42Z</time>
      </trkpt>
      <trkpt lat="43.24562" lon="6.41517">
        <ele>188</ele>
        <time>2015-02-22T11:11:32Z</time>
      </trkpt>
      <trkpt lat="43.24582" lon="6.41499">
        <ele>191</ele>
        <time>2015-02-22T11:11:52Z</time>
      </trkpt>
      <trkpt lat="43.24605" lon="6.41508">
        <ele>193</ele>
        <time>2015-02-22T11:12:20Z</time>
      </trkpt>
      <trkpt lat="43.24626" lon="6.41497">
        <ele>195</ele>
        <time>2015-02-22T11:12:56Z</time>
      </trkpt>
      <trkpt lat="43.24641" lon="6.41473">
        <ele>196</ele>
        <time>2015-02-22T11:13:23Z</time>
      </trkpt>
      <trkpt lat="43.24663" lon="6.4146">
        <ele>199</ele>
        <time>2015-02-22T11:13:44Z</time>
      </trkpt>
      <trkpt lat="43.24706" lon="6.41438">
        <ele>202</ele>
        <time>2015-02-22T11:14:27Z</time>
      </trkpt>
      <trkpt lat="43.24685" lon="6.41425">
        <ele>204</ele>
        <time>2015-02-22T11:15:22Z</time>
      </trkpt>
      <trkpt lat="43.24664" lon="6.41411">
        <ele>206</ele>
        <time>2015-02-22T11:15:49Z</time>
      </trkpt>
      <trkpt lat="43.24645" lon="6.41429">
        <ele>217</ele>
        <time>2015-02-22T11:17:54Z</time>
      </trkpt>
      <trkpt lat="43.24636" lon="6.41401">
        <ele>236</ele>
        <time>2015-02-22T11:18:48Z</time>
      </trkpt>
      <trkpt lat="43.24636" lon="6.41368">
        <ele>240</ele>
        <time>2015-02-22T11:19:24Z</time>
      </trkpt>
      <trkpt lat="43.24642" lon="6.41336">
        <ele>241</ele>
        <time>2015-02-22T11:19:47Z</time>
      </trkpt>
      <trkpt lat="43.24647" lon="6.41306">
        <ele>238</ele>
        <time>2015-02-22T11:20:20Z</time>
      </trkpt>
      <trkpt lat="43.24655" lon="6.41276">
        <ele>237</ele>
        <time>2015-02-22T11:20:39Z</time>
      </trkpt>
      <trkpt lat="43.24679" lon="6.41223">
        <ele>237</ele>
        <time>2015-02-22T11:21:26Z</time>
      </trkpt>
      <trkpt lat="43.24692" lon="6.41197">
        <ele>238</ele>
        <time>2015-02-22T11:21:49Z</time>
      </trkpt>
      <trkpt lat="43.24703" lon="6.41169">
        <ele>247</ele>
        <time>2015-02-22T11:23:54Z</time>
      </trkpt>
      <trkpt lat="43.24718" lon="6.41146">
        <ele>237</ele>
        <time>2015-02-22T11:24:12Z</time>
      </trkpt>
      <trkpt lat="43.24726" lon="6.41114">
        <ele>242</ele>
        <time>2015-02-22T11:24:36Z</time>
      </trkpt>
      <trkpt lat="43.24737" lon="6.41052">
        <ele>250</ele>
        <time>2015-02-22T11:25:26Z</time>
      </trkpt>
      <trkpt lat="43.24744" lon="6.41023">
        <ele>249</ele>
        <time>2015-02-22T11:25:51Z</time>
      </trkpt>
      <trkpt lat="43.24759" lon="6.40998">
        <ele>250</ele>
        <time>2015-02-22T11:26:16Z</time>
      </trkpt>
      <trkpt lat="43.2478" lon="6.4098">
        <ele>251</ele>
        <time>2015-02-22T11:26:40Z</time>
      </trkpt>
      <trkpt lat="43.24801" lon="6.40965">
        <ele>251</ele>
        <time>2015-02-22T11:26:57Z</time>
      </trkpt>
      <trkpt lat="43.24824" lon="6.40959">
        <ele>254</ele>
        <time>2015-02-22T11:27:17Z</time>
      </trkpt>
      <trkpt lat="43.24842" lon="6.40978">
        <ele>255</ele>
        <time>2015-02-22T11:28:10Z</time>
      </trkpt>
      <trkpt lat="43.24861" lon="6.40995">
        <ele>256</ele>
        <time>2015-02-22T11:28:37Z</time>
      </trkpt>
      <trkpt lat="43.24882" lon="6.40999">
        <ele>258</ele>
        <time>2015-02-22T11:29:00Z</time>
      </trkpt>
      <trkpt lat="43.24863" lon="6.41011">
        <ele>269</ele>
        <time>2015-02-22T11:30:03Z</time>
      </trkpt>
      <trkpt lat="43.24841" lon="6.41002">
        <ele>269</ele>
        <time>2015-02-22T11:30:22Z</time>
      </trkpt>
      <trkpt lat="43.24818" lon="6.41005">
        <ele>266</ele>
        <time>2015-02-22T11:30:43Z</time>
      </trkpt>
      <trkpt lat="43.24801" lon="6.41026">
        <ele>270</ele>
        <time>2015-02-22T11:31:05Z</time>
      </trkpt>
      <trkpt lat="43.24793" lon="6.41058">
        <ele>270</ele>
        <time>2015-02-22T11:31:28Z</time>
      </trkpt>
      <trkpt lat="43.2479" lon="6.4109">
        <ele>270</ele>
        <time>2015-02-22T11:31:52Z</time>
      </trkpt>
      <trkpt lat="43.2479" lon="6.41122">
        <ele>272</ele>
        <time>2015-02-22T11:32:22Z</time>
      </trkpt>
      <trkpt lat="43.24792" lon="6.41185">
        <ele>277</ele>
        <time>2015-02-22T11:33:18Z</time>
      </trkpt>
      <trkpt lat="43.24786" lon="6.41216">
        <ele>279</ele>
        <time>2015-02-22T11:33:41Z</time>
      </trkpt>
      <trkpt lat="43.24793" lon="6.41246">
        <ele>280</ele>
        <time>2015-02-22T11:34:04Z</time>
      </trkpt>
      <trkpt lat="43.2481" lon="6.41267">
        <ele>281</ele>
        <time>2015-02-22T11:34:26Z</time>
      </trkpt>
      <trkpt lat="43.24851" lon="6.41295">
        <ele>284</ele>
        <time>2015-02-22T11:35:46Z</time>
      </trkpt>
      <trkpt lat="43.24872" lon="6.4128">
        <ele>286</ele>
        <time>2015-02-22T11:36:11Z</time>
      </trkpt>
      <trkpt lat="43.2491" lon="6.41245">
        <ele>289</ele>
        <time>2015-02-22T11:36:55Z</time>
      </trkpt>
      <trkpt lat="43.24946" lon="6.41205">
        <ele>293</ele>
        <time>2015-02-22T11:37:40Z</time>
      </trkpt>
      <trkpt lat="43.24959" lon="6.41179">
        <ele>295</ele>
        <time>2015-02-22T11:38:06Z</time>
      </trkpt>
      <trkpt lat="43.24973" lon="6.41151">
        <ele>297</ele>
        <time>2015-02-22T11:38:42Z</time>
      </trkpt>
      <trkpt lat="43.24984" lon="6.41121">
        <ele>299</ele>
        <time>2015-02-22T11:39:11Z</time>
      </trkpt>
      <trkpt lat="43.25009" lon="6.41112">
        <ele>301</ele>
        <time>2015-02-22T11:39:55Z</time>
      </trkpt>
      <trkpt lat="43.25034" lon="6.4112">
        <ele>305</ele>
        <time>2015-02-22T11:40:31Z</time>
      </trkpt>
      <trkpt lat="43.25057" lon="6.41127">
        <ele>306</ele>
        <time>2015-02-22T11:40:55Z</time>
      </trkpt>
      <trkpt lat="43.25102" lon="6.41106">
        <ele>307</ele>
        <time>2015-02-22T11:41:34Z</time>
      </trkpt>
      <trkpt lat="43.25124" lon="6.41091">
        <ele>310</ele>
        <time>2015-02-22T11:42:27Z</time>
      </trkpt>
      <trkpt lat="43.25144" lon="6.41077">
        <ele>312</ele>
        <time>2015-02-22T11:43:06Z</time>
      </trkpt>
      <trkpt lat="43.25168" lon="6.41082">
        <ele>314</ele>
        <time>2015-02-22T11:43:44Z</time>
      </trkpt>
      <trkpt lat="43.25186" lon="6.41109">
        <ele>315</ele>
        <time>2015-02-22T11:44:26Z</time>
      </trkpt>
      <trkpt lat="43.25205" lon="6.41132">
        <ele>315</ele>
        <time>2015-02-22T11:45:05Z</time>
      </trkpt>
      <trkpt lat="43.25226" lon="6.41137">
        <ele>316</ele>
        <time>2015-02-22T11:45:30Z</time>
      </trkpt>
      <trkpt lat="43.25243" lon="6.41113">
        <ele>344</ele>
        <time>2015-02-22T11:48:08Z</time>
      </trkpt>
      <trkpt lat="43.25263" lon="6.41097">
        <ele>347</ele>
        <time>2015-02-22T11:48:28Z</time>
      </trkpt>
      <trkpt lat="43.25276" lon="6.41071">
        <ele>346</ele>
        <time>2015-02-22T11:48:56Z</time>
      </trkpt>
      <trkpt lat="43.2529" lon="6.41045">
        <ele>346</ele>
        <time>2015-02-22T11:49:19Z</time>
      </trkpt>
      <trkpt lat="43.25296" lon="6.41015">
        <ele>348</ele>
        <time>2015-02-22T11:49:51Z</time>
      </trkpt>
      <trkpt lat="43.25305" lon="6.40981">
        <ele>349</ele>
        <time>2015-02-22T11:50:23Z</time>
      </trkpt>
      <trkpt lat="43.25322" lon="6.40959">
        <ele>350</ele>
        <time>2015-02-22T11:50:40Z</time>
      </trkpt>
      <trkpt lat="43.2534" lon="6.40935">
        <ele>353</ele>
        <time>2015-02-22T11:51:14Z</time>
      </trkpt>
      <trkpt lat="43.25343" lon="6.40904">
        <ele>354</ele>
        <time>2015-02-22T11:51:43Z</time>
      </trkpt>
      <trkpt lat="43.25359" lon="6.40885">
        <ele>370</ele>
        <time>2015-02-22T11:52:46Z</time>
      </trkpt>
      <trkpt lat="43.2538" lon="6.40875">
        <ele>367</ele>
        <time>2015-02-22T11:53:11Z</time>
      </trkpt>
      <trkpt lat="43.254" lon="6.40852">
        <ele>367</ele>
        <time>2015-02-22T11:53:32Z</time>
      </trkpt>
      <trkpt lat="43.25406" lon="6.40822">
        <ele>370</ele>
        <time>2015-02-22T11:54:07Z</time>
      </trkpt>
      <trkpt lat="43.25413" lon="6.40793">
        <ele>372</ele>
        <time>2015-02-22T11:54:29Z</time>
      </trkpt>
      <trkpt lat="43.25422" lon="6.40765">
        <ele>371</ele>
        <time>2015-02-22T11:54:53Z</time>
      </trkpt>
      <trkpt lat="43.25441" lon="6.40748">
        <ele>371</ele>
        <time>2015-02-22T11:55:31Z</time>
      </trkpt>
      <trkpt lat="43.25464" lon="6.40746">
        <ele>371</ele>
        <time>2015-02-22T11:55:46Z</time>
      </trkpt>
      <trkpt lat="43.25512" lon="6.40748">
        <ele>372</ele>
        <time>2015-02-22T11:56:26Z</time>
      </trkpt>
      <trkpt lat="43.25534" lon="6.40754">
        <ele>371</ele>
        <time>2015-02-22T11:57:04Z</time>
      </trkpt>
      <trkpt lat="43.25538" lon="6.40785">
        <ele>370</ele>
        <time>2015-02-22T11:57:44Z</time>
      </trkpt>
      <trkpt lat="43.25535" lon="6.40816">
        <ele>371</ele>
        <time>2015-02-22T11:58:07Z</time>
      </trkpt>
      <trkpt lat="43.25542" lon="6.40845">
        <ele>370</ele>
        <time>2015-02-22T11:58:46Z</time>
      </trkpt>
      <trkpt lat="43.2556" lon="6.40865">
        <ele>370</ele>
        <time>2015-02-22T11:59:12Z</time>
      </trkpt>
      <trkpt lat="43.25628" lon="6.40852">
        <ele>369</ele>
        <time>2015-02-22T12:00:20Z</time>
      </trkpt>
      <trkpt lat="43.25652" lon="6.40852">
        <ele>369</ele>
        <time>2015-02-22T12:00:47Z</time>
      </trkpt>
      <trkpt lat="43.25666" lon="6.40877">
        <ele>367</ele>
        <time>2015-02-22T12:01:22Z</time>
      </trkpt>
      <trkpt lat="43.2567" lon="6.40908">
        <ele>367</ele>
        <time>2015-02-22T12:01:56Z</time>
      </trkpt>
      <trkpt lat="43.25674" lon="6.4094">
        <ele>366</ele>
        <time>2015-02-22T12:02:14Z</time>
      </trkpt>
      <trkpt lat="43.25694" lon="6.40998">
        <ele>363</ele>
        <time>2015-02-22T12:03:08Z</time>
      </trkpt>
      <trkpt lat="43.25713" lon="6.41015">
        <ele>362</ele>
        <time>2015-02-22T12:03:28Z</time>
      </trkpt>
      <trkpt lat="43.25732" lon="6.41034">
        <ele>361</ele>
        <time>2015-02-22T12:03:48Z</time>
      </trkpt>
      <trkpt lat="43.2574" lon="6.41064">
        <ele>360</ele>
        <time>2015-02-22T12:04:21Z</time>
      </trkpt>
      <trkpt lat="43.25722" lon="6.41123">
        <ele>361</ele>
        <time>2015-02-22T12:05:14Z</time>
      </trkpt>
      <trkpt lat="43.25713" lon="6.41151">
        <ele>360</ele>
        <time>2015-02-22T12:05:35Z</time>
      </trkpt>
      <trkpt lat="43.25699" lon="6.41176">
        <ele>358</ele>
        <time>2015-02-22T12:05:52Z</time>
      </trkpt>
      <trkpt lat="43.2568" lon="6.41196">
        <ele>357</ele>
        <time>2015-02-22T12:06:13Z</time>
      </trkpt>
      <trkpt lat="43.25659" lon="6.41207">
        <ele>356</ele>
        <time>2015-02-22T12:06:40Z</time>
      </trkpt>
      <trkpt lat="43.25649" lon="6.41235">
        <ele>355</ele>
        <time>2015-02-22T12:06:58Z</time>
      </trkpt>
      <trkpt lat="43.25657" lon="6.41265">
        <ele>354</ele>
        <time>2015-02-22T12:07:20Z</time>
      </trkpt>
      <trkpt lat="43.25676" lon="6.41305">
        <ele>352</ele>
        <time>2015-02-22T12:07:57Z</time>
      </trkpt>
      <trkpt lat="43.25699" lon="6.4136">
        <ele>350</ele>
        <time>2015-02-22T12:08:37Z</time>
      </trkpt>
      <trkpt lat="43.25724" lon="6.41412">
        <ele>347</ele>
        <time>2015-02-22T12:09:18Z</time>
      </trkpt>
      <trkpt lat="43.25735" lon="6.4144">
        <ele>347</ele>
        <time>2015-02-22T12:09:42Z</time>
      </trkpt>
      <trkpt lat="43.25757" lon="6.4145">
        <ele>347</ele>
        <time>2015-02-22T12:10:06Z</time>
      </trkpt>
      <trkpt lat="43.25779" lon="6.41459">
        <ele>346</ele>
        <time>2015-02-22T12:11:00Z</time>
      </trkpt>
      <trkpt lat="43.25801" lon="6.41464">
        <ele>346</ele>
        <time>2015-02-22T12:11:22Z</time>
      </trkpt>
      <trkpt lat="43.25844" lon="6.41488">
        <ele>347</ele>
        <time>2015-02-22T12:12:04Z</time>
      </trkpt>
      <trkpt lat="43.25838" lon="6.41518">
        <ele>347</ele>
        <time>2015-02-22T12:12:43Z</time>
      </trkpt>
      <trkpt lat="43.25817" lon="6.41527">
        <ele>347</ele>
        <time>2015-02-22T12:13:06Z</time>
      </trkpt>
      <trkpt lat="43.25798" lon="6.41546">
        <ele>347</ele>
        <time>2015-02-22T12:13:23Z</time>
      </trkpt>
      <trkpt lat="43.25768" lon="6.41595">
        <ele>348</ele>
        <time>2015-02-22T12:14:01Z</time>
      </trkpt>
      <trkpt lat="43.25725" lon="6.41622">
        <ele>348</ele>
        <time>2015-02-22T12:14:43Z</time>
      </trkpt>
      <trkpt lat="43.25696" lon="6.4167">
        <ele>349</ele>
        <time>2015-02-22T12:15:23Z</time>
      </trkpt>
      <trkpt lat="43.25672" lon="6.41675">
        <ele>349</ele>
        <time>2015-02-22T12:15:47Z</time>
      </trkpt>
      <trkpt lat="43.2565" lon="6.41683">
        <ele>350</ele>
        <time>2015-02-22T12:16:02Z</time>
      </trkpt>
      <trkpt lat="43.25636" lon="6.41708">
        <ele>350</ele>
        <time>2015-02-22T12:16:25Z</time>
      </trkpt>
      <trkpt lat="43.25631" lon="6.41739">
        <ele>349</ele>
        <time>2015-02-22T12:16:43Z</time>
      </trkpt>
      <trkpt lat="43.25623" lon="6.41801">
        <ele>351</ele>
        <time>2015-02-22T12:17:27Z</time>
      </trkpt>
      <trkpt lat="43.25622" lon="6.41864">
        <ele>351</ele>
        <time>2015-02-22T12:18:05Z</time>
      </trkpt>
      <trkpt lat="43.25614" lon="6.41926">
        <ele>350</ele>
        <time>2015-02-22T12:18:44Z</time>
      </trkpt>
      <trkpt lat="43.25599" lon="6.41987">
        <ele>349</ele>
        <time>2015-02-22T12:19:21Z</time>
      </trkpt>
      <trkpt lat="43.25579" lon="6.42046">
        <ele>349</ele>
        <time>2015-02-22T12:20:02Z</time>
      </trkpt>
      <trkpt lat="43.25563" lon="6.4207">
        <ele>349</ele>
        <time>2015-02-22T12:20:21Z</time>
      </trkpt>
      <trkpt lat="43.25561" lon="6.42101">
        <ele>348</ele>
        <time>2015-02-22T12:20:42Z</time>
      </trkpt>
      <trkpt lat="43.25546" lon="6.42161">
        <ele>347</ele>
        <time>2015-02-22T12:21:18Z</time>
      </trkpt>
      <trkpt lat="43.25533" lon="6.42223">
        <ele>346</ele>
        <time>2015-02-22T12:21:58Z</time>
      </trkpt>
      <trkpt lat="43.25522" lon="6.42284">
        <ele>346</ele>
        <time>2015-02-22T12:22:38Z</time>
      </trkpt>
      <trkpt lat="43.25518" lon="6.42335">
        <ele>346</ele>
        <time>2015-02-22T12:23:11Z</time>
      </trkpt>
      <trkpt lat="43.25513" lon="6.42397">
        <ele>347</ele>
        <time>2015-02-22T12:23:47Z</time>
      </trkpt>
      <trkpt lat="43.2551" lon="6.42461">
        <ele>347</ele>
        <time>2015-02-22T12:24:26Z</time>
      </trkpt>
      <trkpt lat="43.25505" lon="6.42526">
        <ele>348</ele>
        <time>2015-02-22T12:25:02Z</time>
      </trkpt>
      <trkpt lat="43.25504" lon="6.42558">
        <ele>348</ele>
        <time>2015-02-22T12:25:17Z</time>
      </trkpt>
      <trkpt lat="43.25483" lon="6.42542">
        <ele>349</ele>
        <time>2015-02-22T12:26:16Z</time>
      </trkpt>
      <trkpt lat="43.25466" lon="6.4252">
        <ele>350</ele>
        <time>2015-02-22T12:26:42Z</time>
      </trkpt>
      <trkpt lat="43.25461" lon="6.42505">
        <ele>349</ele>
        <time>2015-02-22T12:26:56Z</time>
      </trkpt>
      <trkpt lat="43.25454" lon="6.42472">
        <ele>350</ele>
        <time>2015-02-22T12:27:27Z</time>
      </trkpt>
      <trkpt lat="43.25445" lon="6.42443">
        <ele>351</ele>
        <time>2015-02-22T12:27:54Z</time>
      </trkpt>
      <trkpt lat="43.25438" lon="6.42413">
        <ele>360</ele>
        <time>2015-02-22T12:29:38Z</time>
      </trkpt>
      <trkpt lat="43.25436" lon="6.42381">
        <ele>355</ele>
        <time>2015-02-22T12:29:55Z</time>
      </trkpt>
      <trkpt lat="43.25423" lon="6.42322">
        <ele>359</ele>
        <time>2015-02-22T12:30:26Z</time>
      </trkpt>
      <trkpt lat="43.25407" lon="6.42299">
        <ele>359</ele>
        <time>2015-02-22T12:30:43Z</time>
      </trkpt>
      <trkpt lat="43.25385" lon="6.42293">
        <ele>359</ele>
        <time>2015-02-22T12:30:59Z</time>
      </trkpt>
      <trkpt lat="43.25363" lon="6.423">
        <ele>359</ele>
        <time>2015-02-22T12:31:16Z</time>
      </trkpt>
      <trkpt lat="43.25318" lon="6.42325">
        <ele>360</ele>
        <time>2015-02-22T12:31:47Z</time>
      </trkpt>
      <trkpt lat="43.25313" lon="6.42356">
        <ele>361</ele>
        <time>2015-02-22T12:32:21Z</time>
      </trkpt>
      <trkpt lat="43.25336" lon="6.42364">
        <ele>361</ele>
        <time>2015-02-22T12:33:10Z</time>
      </trkpt>
      <trkpt lat="43.25322" lon="6.42347">
        <ele>371</ele>
        <time>2015-02-22T12:57:09Z</time>
      </trkpt>
      <trkpt lat="43.253" lon="6.42326">
        <ele>369</ele>
        <time>2015-02-22T12:57:18Z</time>
      </trkpt>
      <trkpt lat="43.25302" lon="6.42357">
        <ele>367</ele>
        <time>2015-02-22T12:58:03Z</time>
      </trkpt>
      <trkpt lat="43.25329" lon="6.42361">
        <ele>362</ele>
        <time>2015-02-22T12:58:11Z</time>
      </trkpt>
      <trkpt lat="43.25326" lon="6.42366">
        <ele>366</ele>
        <time>2015-02-22T12:59:15Z</time>
      </trkpt>
      <trkpt lat="43.25322" lon="6.42369">
        <ele>377</ele>
        <time>2015-02-22T13:24:38Z</time>
      </trkpt>
      <trkpt lat="43.25306" lon="6.42346">
        <ele>368</ele>
        <time>2015-02-22T13:49:48Z</time>
      </trkpt>
      <trkpt lat="43.25283" lon="6.42353">
        <ele>372</ele>
        <time>2015-02-22T13:50:05Z</time>
      </trkpt>
      <trkpt lat="43.25273" lon="6.42381">
        <ele>371</ele>
        <time>2015-02-22T13:50:26Z</time>
      </trkpt>
      <trkpt lat="43.25283" lon="6.42412">
        <ele>369</ele>
        <time>2015-02-22T13:50:55Z</time>
      </trkpt>
      <trkpt lat="43.25308" lon="6.42464">
        <ele>371</ele>
        <time>2015-02-22T13:51:33Z</time>
      </trkpt>
      <trkpt lat="43.25308" lon="6.42496">
        <ele>370</ele>
        <time>2015-02-22T13:51:57Z</time>
      </trkpt>
      <trkpt lat="43.25305" lon="6.42557">
        <ele>370</ele>
        <time>2015-02-22T13:52:44Z</time>
      </trkpt>
      <trkpt lat="43.253" lon="6.42621">
        <ele>370</ele>
        <time>2015-02-22T13:53:22Z</time>
      </trkpt>
      <trkpt lat="43.25294" lon="6.42684">
        <ele>370</ele>
        <time>2015-02-22T13:54:12Z</time>
      </trkpt>
      <trkpt lat="43.25286" lon="6.42713">
        <ele>370</ele>
        <time>2015-02-22T13:54:27Z</time>
      </trkpt>
      <trkpt lat="43.25268" lon="6.42735">
        <ele>370</ele>
        <time>2015-02-22T13:54:50Z</time>
      </trkpt>
      <trkpt lat="43.25247" lon="6.42748">
        <ele>370</ele>
        <time>2015-02-22T13:55:06Z</time>
      </trkpt>
      <trkpt lat="43.25224" lon="6.42754">
        <ele>371</ele>
        <time>2015-02-22T13:55:27Z</time>
      </trkpt>
      <trkpt lat="43.25201" lon="6.42745">
        <ele>371</ele>
        <time>2015-02-22T13:55:48Z</time>
      </trkpt>
      <trkpt lat="43.25182" lon="6.42728">
        <ele>372</ele>
        <time>2015-02-22T13:56:07Z</time>
      </trkpt>
      <trkpt lat="43.25153" lon="6.42679">
        <ele>373</ele>
        <time>2015-02-22T13:56:48Z</time>
      </trkpt>
      <trkpt lat="43.25139" lon="6.42652">
        <ele>374</ele>
        <time>2015-02-22T13:57:14Z</time>
      </trkpt>
      <trkpt lat="43.25118" lon="6.42639">
        <ele>374</ele>
        <time>2015-02-22T13:57:32Z</time>
      </trkpt>
      <trkpt lat="43.25093" lon="6.42635">
        <ele>375</ele>
        <time>2015-02-22T13:57:54Z</time>
      </trkpt>
      <trkpt lat="43.25071" lon="6.42645">
        <ele>375</ele>
        <time>2015-02-22T13:58:18Z</time>
      </trkpt>
      <trkpt lat="43.25053" lon="6.42666">
        <ele>375</ele>
        <time>2015-02-22T13:58:38Z</time>
      </trkpt>
      <trkpt lat="43.25039" lon="6.42691">
        <ele>376</ele>
        <time>2015-02-22T13:58:59Z</time>
      </trkpt>
      <trkpt lat="43.25033" lon="6.42721">
        <ele>376</ele>
        <time>2015-02-22T13:59:20Z</time>
      </trkpt>
      <trkpt lat="43.25039" lon="6.42782">
        <ele>377</ele>
        <time>2015-02-22T13:59:56Z</time>
      </trkpt>
      <trkpt lat="43.25032" lon="6.42844">
        <ele>379</ele>
        <time>2015-02-22T14:00:39Z</time>
      </trkpt>
      <trkpt lat="43.25022" lon="6.42874">
        <ele>378</ele>
        <time>2015-02-22T14:00:56Z</time>
      </trkpt>
      <trkpt lat="43.25005" lon="6.42895">
        <ele>379</ele>
        <time>2015-02-22T14:01:15Z</time>
      </trkpt>
      <trkpt lat="43.24986" lon="6.42911">
        <ele>384</ele>
        <time>2015-02-22T14:02:53Z</time>
      </trkpt>
      <trkpt lat="43.24981" lon="6.42943">
        <ele>380</ele>
        <time>2015-02-22T14:03:44Z</time>
      </trkpt>
      <trkpt lat="43.24969" lon="6.43004">
        <ele>380</ele>
        <time>2015-02-22T14:04:34Z</time>
      </trkpt>
      <trkpt lat="43.24966" lon="6.43066">
        <ele>379</ele>
        <time>2015-02-22T14:05:14Z</time>
      </trkpt>
      <trkpt lat="43.24957" lon="6.43096">
        <ele>379</ele>
        <time>2015-02-22T14:05:36Z</time>
      </trkpt>
      <trkpt lat="43.24944" lon="6.43121">
        <ele>379</ele>
        <time>2015-02-22T14:05:55Z</time>
      </trkpt>
      <trkpt lat="43.24921" lon="6.43176">
        <ele>380</ele>
        <time>2015-02-22T14:06:37Z</time>
      </trkpt>
      <trkpt lat="43.24914" lon="6.43206">
        <ele>380</ele>
        <time>2015-02-22T14:07:02Z</time>
      </trkpt>
      <trkpt lat="43.24906" lon="6.4327">
        <ele>380</ele>
        <time>2015-02-22T14:07:46Z</time>
      </trkpt>
      <trkpt lat="43.24892" lon="6.43295">
        <ele>380</ele>
        <time>2015-02-22T14:08:07Z</time>
      </trkpt>
      <trkpt lat="43.24874" lon="6.43315">
        <ele>380</ele>
        <time>2015-02-22T14:08:28Z</time>
      </trkpt>
      <trkpt lat="43.24867" lon="6.43346">
        <ele>379</ele>
        <time>2015-02-22T14:08:50Z</time>
      </trkpt>
      <trkpt lat="43.24859" lon="6.43411">
        <ele>379</ele>
        <time>2015-02-22T14:09:35Z</time>
      </trkpt>
      <trkpt lat="43.24848" lon="6.43439">
        <ele>379</ele>
        <time>2015-02-22T14:09:57Z</time>
      </trkpt>
      <trkpt lat="43.24814" lon="6.43484">
        <ele>376</ele>
        <time>2015-02-22T14:10:47Z</time>
      </trkpt>
      <trkpt lat="43.24794" lon="6.43532">
        <ele>377</ele>
        <time>2015-02-22T14:11:28Z</time>
      </trkpt>
      <trkpt lat="43.24768" lon="6.43585">
        <ele>376</ele>
        <time>2015-02-22T14:12:15Z</time>
      </trkpt>
      <trkpt lat="43.24766" lon="6.43616">
        <ele>375</ele>
        <time>2015-02-22T14:12:36Z</time>
      </trkpt>
      <trkpt lat="43.24776" lon="6.43644">
        <ele>374</ele>
        <time>2015-02-22T14:12:54Z</time>
      </trkpt>
      <trkpt lat="43.24781" lon="6.43675">
        <ele>373</ele>
        <time>2015-02-22T14:13:51Z</time>
      </trkpt>
      <trkpt lat="43.24775" lon="6.43739">
        <ele>371</ele>
        <time>2015-02-22T14:14:56Z</time>
      </trkpt>
      <trkpt lat="43.24779" lon="6.4377">
        <ele>370</ele>
        <time>2015-02-22T14:15:11Z</time>
      </trkpt>
      <trkpt lat="43.24772" lon="6.438">
        <ele>370</ele>
        <time>2015-02-22T14:15:30Z</time>
      </trkpt>
      <trkpt lat="43.24753" lon="6.43817">
        <ele>370</ele>
        <time>2015-02-22T14:16:37Z</time>
      </trkpt>
      <trkpt lat="43.24737" lon="6.4384">
        <ele>367</ele>
        <time>2015-02-22T14:16:55Z</time>
      </trkpt>
      <trkpt lat="43.24721" lon="6.43862">
        <ele>365</ele>
        <time>2015-02-22T14:17:12Z</time>
      </trkpt>
      <trkpt lat="43.24696" lon="6.43915">
        <ele>366</ele>
        <time>2015-02-22T14:18:03Z</time>
      </trkpt>
      <trkpt lat="43.24696" lon="6.43949">
        <ele>367</ele>
        <time>2015-02-22T14:18:27Z</time>
      </trkpt>
      <trkpt lat="43.24698" lon="6.44012">
        <ele>366</ele>
        <time>2015-02-22T14:19:03Z</time>
      </trkpt>
      <trkpt lat="43.24692" lon="6.44076">
        <ele>365</ele>
        <time>2015-02-22T14:19:50Z</time>
      </trkpt>
      <trkpt lat="43.24684" lon="6.44132">
        <ele>363</ele>
        <time>2015-02-22T14:20:27Z</time>
      </trkpt>
      <trkpt lat="43.24657" lon="6.44186">
        <ele>362</ele>
        <time>2015-02-22T14:21:11Z</time>
      </trkpt>
      <trkpt lat="43.24644" lon="6.44245">
        <ele>361</ele>
        <time>2015-02-22T14:21:59Z</time>
      </trkpt>
      <trkpt lat="43.24637" lon="6.44307">
        <ele>360</ele>
        <time>2015-02-22T14:22:40Z</time>
      </trkpt>
      <trkpt lat="43.24636" lon="6.44372">
        <ele>358</ele>
        <time>2015-02-22T14:23:18Z</time>
      </trkpt>
      <trkpt lat="43.24635" lon="6.44404">
        <ele>358</ele>
        <time>2015-02-22T14:24:04Z</time>
      </trkpt>
      <trkpt lat="43.24642" lon="6.44434">
        <ele>357</ele>
        <time>2015-02-22T14:24:55Z</time>
      </trkpt>
      <trkpt lat="43.24651" lon="6.44462">
        <ele>355</ele>
        <time>2015-02-22T14:25:30Z</time>
      </trkpt>
      <trkpt lat="43.24673" lon="6.44518">
        <ele>350</ele>
        <time>2015-02-22T14:26:09Z</time>
      </trkpt>
      <trkpt lat="43.24685" lon="6.44544">
        <ele>347</ele>
        <time>2015-02-22T14:26:29Z</time>
      </trkpt>
      <trkpt lat="43.24719" lon="6.44585">
        <ele>343</ele>
        <time>2015-02-22T14:27:08Z</time>
      </trkpt>
      <trkpt lat="43.24734" lon="6.44611">
        <ele>341</ele>
        <time>2015-02-22T14:27:30Z</time>
      </trkpt>
      <trkpt lat="43.24753" lon="6.44668">
        <ele>337</ele>
        <time>2015-02-22T14:28:11Z</time>
      </trkpt>
      <trkpt lat="43.24772" lon="6.44727">
        <ele>336</ele>
        <time>2015-02-22T14:28:51Z</time>
      </trkpt>
      <trkpt lat="43.24784" lon="6.44787">
        <ele>334</ele>
        <time>2015-02-22T14:29:32Z</time>
      </trkpt>
      <trkpt lat="43.24795" lon="6.44849">
        <ele>332</ele>
        <time>2015-02-22T14:30:10Z</time>
      </trkpt>
      <trkpt lat="43.24797" lon="6.44879">
        <ele>331</ele>
        <time>2015-02-22T14:30:31Z</time>
      </trkpt>
      <trkpt lat="43.24796" lon="6.44911">
        <ele>331</ele>
        <time>2015-02-22T14:30:51Z</time>
      </trkpt>
      <trkpt lat="43.24795" lon="6.44942">
        <ele>330</ele>
        <time>2015-02-22T14:31:12Z</time>
      </trkpt>
      <trkpt lat="43.24786" lon="6.45004">
        <ele>330</ele>
        <time>2015-02-22T14:31:55Z</time>
      </trkpt>
      <trkpt lat="43.24791" lon="6.45036">
        <ele>329</ele>
        <time>2015-02-22T14:32:38Z</time>
      </trkpt>
      <trkpt lat="43.24801" lon="6.45064">
        <ele>327</ele>
        <time>2015-02-22T14:33:01Z</time>
      </trkpt>
      <trkpt lat="43.24805" lon="6.45096">
        <ele>327</ele>
        <time>2015-02-22T14:33:24Z</time>
      </trkpt>
      <trkpt lat="43.248" lon="6.45127">
        <ele>326</ele>
        <time>2015-02-22T14:33:47Z</time>
      </trkpt>
      <trkpt lat="43.24779" lon="6.45183">
        <ele>322</ele>
        <time>2015-02-22T14:34:27Z</time>
      </trkpt>
      <trkpt lat="43.24768" lon="6.45213">
        <ele>322</ele>
        <time>2015-02-22T14:34:48Z</time>
      </trkpt>
      <trkpt lat="43.24751" lon="6.45233">
        <ele>322</ele>
        <time>2015-02-22T14:35:12Z</time>
      </trkpt>
      <trkpt lat="43.24741" lon="6.45263">
        <ele>321</ele>
        <time>2015-02-22T14:35:29Z</time>
      </trkpt>
      <trkpt lat="43.24732" lon="6.45292">
        <ele>320</ele>
        <time>2015-02-22T14:35:48Z</time>
      </trkpt>
      <trkpt lat="43.24736" lon="6.45322">
        <ele>319</ele>
        <time>2015-02-22T14:36:08Z</time>
      </trkpt>
      <trkpt lat="43.24739" lon="6.45354">
        <ele>318</ele>
        <time>2015-02-22T14:37:02Z</time>
      </trkpt>
      <trkpt lat="43.24742" lon="6.45416">
        <ele>316</ele>
        <time>2015-02-22T14:37:48Z</time>
      </trkpt>
      <trkpt lat="43.24733" lon="6.45446">
        <ele>315</ele>
        <time>2015-02-22T14:38:06Z</time>
      </trkpt>
      <trkpt lat="43.24706" lon="6.45498">
        <ele>313</ele>
        <time>2015-02-22T14:38:54Z</time>
      </trkpt>
      <trkpt lat="43.24679" lon="6.45554">
        <ele>313</ele>
        <time>2015-02-22T14:39:33Z</time>
      </trkpt>
      <trkpt lat="43.24661" lon="6.45574">
        <ele>313</ele>
        <time>2015-02-22T14:39:55Z</time>
      </trkpt>
      <trkpt lat="43.24621" lon="6.45608">
        <ele>311</ele>
        <time>2015-02-22T14:40:36Z</time>
      </trkpt>
      <trkpt lat="43.246" lon="6.45622">
        <ele>310</ele>
        <time>2015-02-22T14:41:04Z</time>
      </trkpt>
      <trkpt lat="43.2459" lon="6.4565">
        <ele>310</ele>
        <time>2015-02-22T14:41:28Z</time>
      </trkpt>
      <trkpt lat="43.24575" lon="6.45679">
        <ele>310</ele>
        <time>2015-02-22T14:41:52Z</time>
      </trkpt>
      <trkpt lat="43.24568" lon="6.45709">
        <ele>314</ele>
        <time>2015-02-22T14:44:30Z</time>
      </trkpt>
      <trkpt lat="43.24557" lon="6.45738">
        <ele>310</ele>
        <time>2015-02-22T14:44:59Z</time>
      </trkpt>
      <trkpt lat="43.24557" lon="6.4577">
        <ele>307</ele>
        <time>2015-02-22T14:46:30Z</time>
      </trkpt>
      <trkpt lat="43.24545" lon="6.45797">
        <ele>307</ele>
        <time>2015-02-22T14:46:47Z</time>
      </trkpt>
      <trkpt lat="43.24535" lon="6.45825">
        <ele>308</ele>
        <time>2015-02-22T14:47:06Z</time>
      </trkpt>
      <trkpt lat="43.24519" lon="6.45886">
        <ele>307</ele>
        <time>2015-02-22T14:47:38Z</time>
      </trkpt>
      <trkpt lat="43.24507" lon="6.45914">
        <ele>305</ele>
        <time>2015-02-22T14:47:54Z</time>
      </trkpt>
      <trkpt lat="43.24477" lon="6.45961">
        <ele>308</ele>
        <time>2015-02-22T14:48:52Z</time>
      </trkpt>
      <trkpt lat="43.24439" lon="6.45997">
        <ele>310</ele>
        <time>2015-02-22T14:49:24Z</time>
      </trkpt>
      <trkpt lat="43.24398" lon="6.46022">
        <ele>310</ele>
        <time>2015-02-22T14:50:01Z</time>
      </trkpt>
      <trkpt lat="43.24376" lon="6.46033">
        <ele>310</ele>
        <time>2015-02-22T14:50:23Z</time>
      </trkpt>
      <trkpt lat="43.24361" lon="6.46056">
        <ele>309</ele>
        <time>2015-02-22T14:50:43Z</time>
      </trkpt>
      <trkpt lat="43.2433" lon="6.46103">
        <ele>311</ele>
        <time>2015-02-22T14:51:24Z</time>
      </trkpt>
      <trkpt lat="43.24314" lon="6.46127">
        <ele>311</ele>
        <time>2015-02-22T14:52:21Z</time>
      </trkpt>
      <trkpt lat="43.2429" lon="6.4613">
        <ele>311</ele>
        <time>2015-02-22T14:52:41Z</time>
      </trkpt>
      <trkpt lat="43.24269" lon="6.46118">
        <ele>311</ele>
        <time>2015-02-22T14:53:00Z</time>
      </trkpt>
      <trkpt lat="43.24249" lon="6.46135">
        <ele>310</ele>
        <time>2015-02-22T14:53:23Z</time>
      </trkpt>
      <trkpt lat="43.24242" lon="6.46165">
        <ele>309</ele>
        <time>2015-02-22T14:53:55Z</time>
      </trkpt>
      <trkpt lat="43.24232" lon="6.46227">
        <ele>308</ele>
        <time>2015-02-22T14:54:39Z</time>
      </trkpt>
      <trkpt lat="43.2421" lon="6.46285">
        <ele>305</ele>
        <time>2015-02-22T14:55:24Z</time>
      </trkpt>
      <trkpt lat="43.24197" lon="6.46345">
        <ele>303</ele>
        <time>2015-02-22T14:56:00Z</time>
      </trkpt>
      <trkpt lat="43.2418" lon="6.46367">
        <ele>303</ele>
        <time>2015-02-22T14:56:24Z</time>
      </trkpt>
      <trkpt lat="43.24158" lon="6.46374">
        <ele>302</ele>
        <time>2015-02-22T14:56:47Z</time>
      </trkpt>
      <trkpt lat="43.24112" lon="6.46385">
        <ele>298</ele>
        <time>2015-02-22T14:57:25Z</time>
      </trkpt>
      <trkpt lat="43.24067" lon="6.46396">
        <ele>294</ele>
        <time>2015-02-22T14:58:05Z</time>
      </trkpt>
      <trkpt lat="43.24021" lon="6.46395">
        <ele>291</ele>
        <time>2015-02-22T14:58:43Z</time>
      </trkpt>
      <trkpt lat="43.23975" lon="6.46386">
        <ele>288</ele>
        <time>2015-02-22T14:59:23Z</time>
      </trkpt>
      <trkpt lat="43.23952" lon="6.46381">
        <ele>286</ele>
        <time>2015-02-22T14:59:44Z</time>
      </trkpt>
      <trkpt lat="43.2393" lon="6.46375">
        <ele>285</ele>
        <time>2015-02-22T15:00:05Z</time>
      </trkpt>
      <trkpt lat="43.23906" lon="6.46379">
        <ele>283</ele>
        <time>2015-02-22T15:00:29Z</time>
      </trkpt>
      <trkpt lat="43.23884" lon="6.46389">
        <ele>281</ele>
        <time>2015-02-22T15:00:58Z</time>
      </trkpt>
      <trkpt lat="43.23865" lon="6.46407">
        <ele>261</ele>
        <time>2015-02-22T15:02:14Z</time>
      </trkpt>
      <trkpt lat="43.23849" lon="6.4643">
        <ele>268</ele>
        <time>2015-02-22T15:03:00Z</time>
      </trkpt>
      <trkpt lat="43.23835" lon="6.46456">
        <ele>264</ele>
        <time>2015-02-22T15:03:21Z</time>
      </trkpt>
      <trkpt lat="43.23818" lon="6.46477">
        <ele>266</ele>
        <time>2015-02-22T15:04:03Z</time>
      </trkpt>
      <trkpt lat="43.23796" lon="6.46488">
        <ele>264</ele>
        <time>2015-02-22T15:04:22Z</time>
      </trkpt>
      <trkpt lat="43.23773" lon="6.46496">
        <ele>264</ele>
        <time>2015-02-22T15:04:46Z</time>
      </trkpt>
      <trkpt lat="43.23734" lon="6.46532">
        <ele>262</ele>
        <time>2015-02-22T15:05:31Z</time>
      </trkpt>
      <trkpt lat="43.23703" lon="6.46579">
        <ele>261</ele>
        <time>2015-02-22T15:06:12Z</time>
      </trkpt>
      <trkpt lat="43.23682" lon="6.46595">
        <ele>261</ele>
        <time>2015-02-22T15:06:32Z</time>
      </trkpt>
      <trkpt lat="43.2366" lon="6.46604">
        <ele>260</ele>
        <time>2015-02-22T15:06:54Z</time>
      </trkpt>
      <trkpt lat="43.23616" lon="6.46594">
        <ele>259</ele>
        <time>2015-02-22T15:07:34Z</time>
      </trkpt>
      <trkpt lat="43.2357" lon="6.46589">
        <ele>257</ele>
        <time>2015-02-22T15:08:17Z</time>
      </trkpt>
      <trkpt lat="43.2355" lon="6.46573">
        <ele>255</ele>
        <time>2015-02-22T15:08:41Z</time>
      </trkpt>
      <trkpt lat="43.23543" lon="6.46543">
        <ele>255</ele>
        <time>2015-02-22T15:09:12Z</time>
      </trkpt>
      <trkpt lat="43.23538" lon="6.46513">
        <ele>253</ele>
        <time>2015-02-22T15:09:34Z</time>
      </trkpt>
      <trkpt lat="43.23518" lon="6.46496">
        <ele>251</ele>
        <time>2015-02-22T15:09:55Z</time>
      </trkpt>
      <trkpt lat="43.23495" lon="6.46492">
        <ele>249</ele>
        <time>2015-02-22T15:10:15Z</time>
      </trkpt>
      <trkpt lat="43.23472" lon="6.46498">
        <ele>247</ele>
        <time>2015-02-22T15:10:33Z</time>
      </trkpt>
      <trkpt lat="43.23453" lon="6.46517">
        <ele>246</ele>
        <time>2015-02-22T15:10:55Z</time>
      </trkpt>
      <trkpt lat="43.23434" lon="6.46537">
        <ele>245</ele>
        <time>2015-02-22T15:11:16Z</time>
      </trkpt>
      <trkpt lat="43.23425" lon="6.46565">
        <ele>244</ele>
        <time>2015-02-22T15:11:32Z</time>
      </trkpt>
      <trkpt lat="43.23403" lon="6.46621">
        <ele>241</ele>
        <time>2015-02-22T15:12:12Z</time>
      </trkpt>
      <trkpt lat="43.23392" lon="6.46649">
        <ele>239</ele>
        <time>2015-02-22T15:12:30Z</time>
      </trkpt>
      <trkpt lat="43.2338" lon="6.46677">
        <ele>239</ele>
        <time>2015-02-22T15:13:11Z</time>
      </trkpt>
      <trkpt lat="43.23357" lon="6.46731">
        <ele>237</ele>
        <time>2015-02-22T15:13:50Z</time>
      </trkpt>
      <trkpt lat="43.23343" lon="6.46756">
        <ele>236</ele>
        <time>2015-02-22T15:14:10Z</time>
      </trkpt>
      <trkpt lat="43.23321" lon="6.46767">
        <ele>235</ele>
        <time>2015-02-22T15:14:32Z</time>
      </trkpt>
      <trkpt lat="43.23303" lon="6.46787">
        <ele>220</ele>
        <time>2015-02-22T15:17:21Z</time>
      </trkpt>
      <trkpt lat="43.23296" lon="6.46816">
        <ele>225</ele>
        <time>2015-02-22T15:17:44Z</time>
      </trkpt>
      <trkpt lat="43.23276" lon="6.46832">
        <ele>208</ele>
        <time>2015-02-22T15:19:01Z</time>
      </trkpt>
      <trkpt lat="43.23254" lon="6.46817">
        <ele>216</ele>
        <time>2015-02-22T15:19:18Z</time>
      </trkpt>
      <trkpt lat="43.23234" lon="6.46802">
        <ele>216</ele>
        <time>2015-02-22T15:19:34Z</time>
      </trkpt>
      <trkpt lat="43.23191" lon="6.46775">
        <ele>213</ele>
        <time>2015-02-22T15:20:06Z</time>
      </trkpt>
      <trkpt lat="43.23145" lon="6.46763">
        <ele>210</ele>
        <time>2015-02-22T15:20:37Z</time>
      </trkpt>
      <trkpt lat="43.2312" lon="6.46765">
        <ele>209</ele>
        <time>2015-02-22T15:20:54Z</time>
      </trkpt>
      <trkpt lat="43.23101" lon="6.46788">
        <ele>208</ele>
        <time>2015-02-22T15:21:11Z</time>
      </trkpt>
      <trkpt lat="43.23067" lon="6.46838">
        <ele>210</ele>
        <time>2015-02-22T15:21:46Z</time>
      </trkpt>
      <trkpt lat="43.23051" lon="6.46862">
        <ele>211</ele>
        <time>2015-02-22T15:22:04Z</time>
      </trkpt>
      <trkpt lat="43.23024" lon="6.46912">
        <ele>211</ele>
        <time>2015-02-22T15:22:39Z</time>
      </trkpt>
      <trkpt lat="43.22989" lon="6.46952">
        <ele>211</ele>
        <time>2015-02-22T15:23:19Z</time>
      </trkpt>
      <trkpt lat="43.22967" lon="6.46961">
        <ele>211</ele>
        <time>2015-02-22T15:23:44Z</time>
      </trkpt>
      <trkpt lat="43.22928" lon="6.46995">
        <ele>213</ele>
        <time>2015-02-22T15:24:30Z</time>
      </trkpt>
      <trkpt lat="43.22908" lon="6.4701">
        <ele>207</ele>
        <time>2015-02-22T15:26:19Z</time>
      </trkpt>
      <trkpt lat="43.22885" lon="6.47016">
        <ele>206</ele>
        <time>2015-02-22T15:27:13Z</time>
      </trkpt>
      <trkpt lat="43.22861" lon="6.47013">
        <ele>209</ele>
        <time>2015-02-22T15:27:41Z</time>
      </trkpt>
      <trkpt lat="43.2284" lon="6.47029">
        <ele>210</ele>
        <time>2015-02-22T15:29:18Z</time>
      </trkpt>
      <trkpt lat="43.2282" lon="6.47043">
        <ele>208</ele>
        <time>2015-02-22T15:29:35Z</time>
      </trkpt>
      <trkpt lat="43.228" lon="6.47058">
        <ele>210</ele>
        <time>2015-02-22T15:29:56Z</time>
      </trkpt>
      <trkpt lat="43.22783" lon="6.47079">
        <ele>215</ele>
        <time>2015-02-22T15:30:33Z</time>
      </trkpt>
      <trkpt lat="43.2276" lon="6.4709">
        <ele>209</ele>
        <time>2015-02-22T15:31:38Z</time>
      </trkpt>
      <trkpt lat="43.22738" lon="6.47103">
        <ele>216</ele>
        <time>2015-02-22T15:32:02Z</time>
      </trkpt>
      <trkpt lat="43.22719" lon="6.47121">
        <ele>216</ele>
        <time>2015-02-22T15:32:26Z</time>
      </trkpt>
      <trkpt lat="43.22704" lon="6.47144">
        <ele>219</ele>
        <time>2015-02-22T15:32:45Z</time>
      </trkpt>
      <trkpt lat="43.22683" lon="6.47201">
        <ele>219</ele>
        <time>2015-02-22T15:33:23Z</time>
      </trkpt>
      <trkpt lat="43.2268" lon="6.47263">
        <ele>219</ele>
        <time>2015-02-22T15:34:04Z</time>
      </trkpt>
      <trkpt lat="43.22675" lon="6.47325">
        <ele>218</ele>
        <time>2015-02-22T15:34:44Z</time>
      </trkpt>
      <trkpt lat="43.22655" lon="6.47384">
        <ele>217</ele>
        <time>2015-02-22T15:35:24Z</time>
      </trkpt>
      <trkpt lat="43.22642" lon="6.47444">
        <ele>216</ele>
        <time>2015-02-22T15:36:03Z</time>
      </trkpt>
      <trkpt lat="43.22645" lon="6.47506">
        <ele>215</ele>
        <time>2015-02-22T15:36:41Z</time>
      </trkpt>
      <trkpt lat="43.22637" lon="6.47568">
        <ele>214</ele>
        <time>2015-02-22T15:37:24Z</time>
      </trkpt>
      <trkpt lat="43.22629" lon="6.47598">
        <ele>214</ele>
        <time>2015-02-22T15:37:45Z</time>
      </trkpt>
      <trkpt lat="43.22608" lon="6.47611">
        <ele>213</ele>
        <time>2015-02-22T15:38:12Z</time>
      </trkpt>
      <trkpt lat="43.22585" lon="6.47614">
        <ele>202</ele>
        <time>2015-02-22T15:40:18Z</time>
      </trkpt>
      <trkpt lat="43.22563" lon="6.47625">
        <ele>202</ele>
        <time>2015-02-22T15:40:55Z</time>
      </trkpt>
      <trkpt lat="43.22541" lon="6.47635">
        <ele>204</ele>
        <time>2015-02-22T15:41:12Z</time>
      </trkpt>
      <trkpt lat="43.22519" lon="6.47639">
        <ele>200</ele>
        <time>2015-02-22T15:41:28Z</time>
      </trkpt>
      <trkpt lat="43.22498" lon="6.47655">
        <ele>198</ele>
        <time>2015-02-22T15:42:12Z</time>
      </trkpt>
      <trkpt lat="43.22477" lon="6.47665">
        <ele>199</ele>
        <time>2015-02-22T15:42:33Z</time>
      </trkpt>
      <trkpt lat="43.22467" lon="6.47694">
        <ele>198</ele>
        <time>2015-02-22T15:42:49Z</time>
      </trkpt>
      <trkpt lat="43.22462" lon="6.47725">
        <ele>197</ele>
        <time>2015-02-22T15:43:24Z</time>
      </trkpt>
      <trkpt lat="43.22447" lon="6.4775">
        <ele>196</ele>
        <time>2015-02-22T15:43:48Z</time>
      </trkpt>
      <trkpt lat="43.22423" lon="6.4776">
        <ele>195</ele>
        <time>2015-02-22T15:44:15Z</time>
      </trkpt>
      <trkpt lat="43.22377" lon="6.47766">
        <ele>194</ele>
        <time>2015-02-22T15:45:02Z</time>
      </trkpt>
      <trkpt lat="43.22354" lon="6.47766">
        <ele>192</ele>
        <time>2015-02-22T15:45:37Z</time>
      </trkpt>
      <trkpt lat="43.22309" lon="6.47758">
        <ele>190</ele>
        <time>2015-02-22T15:46:18Z</time>
      </trkpt>
      <trkpt lat="43.22261" lon="6.47759">
        <ele>188</ele>
        <time>2015-02-22T15:46:59Z</time>
      </trkpt>
      <trkpt lat="43.22217" lon="6.47773">
        <ele>184</ele>
        <time>2015-02-22T15:47:40Z</time>
      </trkpt>
      <trkpt lat="43.22171" lon="6.47787">
        <ele>181</ele>
        <time>2015-02-22T15:48:18Z</time>
      </trkpt>
      <trkpt lat="43.22126" lon="6.47798">
        <ele>177</ele>
        <time>2015-02-22T15:48:58Z</time>
      </trkpt>
      <trkpt lat="43.22087" lon="6.47834">
        <ele>174</ele>
        <time>2015-02-22T15:49:39Z</time>
      </trkpt>
      <trkpt lat="43.22049" lon="6.47869">
        <ele>171</ele>
        <time>2015-02-22T15:50:19Z</time>
      </trkpt>
      <trkpt lat="43.22007" lon="6.47897">
        <ele>168</ele>
        <time>2015-02-22T15:51:00Z</time>
      </trkpt>
      <trkpt lat="43.21988" lon="6.47914">
        <ele>167</ele>
        <time>2015-02-22T15:51:19Z</time>
      </trkpt>
      <trkpt lat="43.21964" lon="6.47909">
        <ele>165</ele>
        <time>2015-02-22T15:51:45Z</time>
      </trkpt>
      <trkpt lat="43.21946" lon="6.47889">
        <ele>163</ele>
        <time>2015-02-22T15:52:04Z</time>
      </trkpt>
      <trkpt lat="43.21932" lon="6.47864">
        <ele>162</ele>
        <time>2015-02-22T15:52:25Z</time>
      </trkpt>
      <trkpt lat="43.21891" lon="6.47835">
        <ele>158</ele>
        <time>2015-02-22T15:53:06Z</time>
      </trkpt>
      <trkpt lat="43.21872" lon="6.47819">
        <ele>156</ele>
        <time>2015-02-22T15:53:27Z</time>
      </trkpt>
      <trkpt lat="43.21842" lon="6.47772">
        <ele>152</ele>
        <time>2015-02-22T15:54:04Z</time>
      </trkpt>
      <trkpt lat="43.21804" lon="6.47735">
        <ele>147</ele>
        <time>2015-02-22T15:54:44Z</time>
      </trkpt>
      <trkpt lat="43.21785" lon="6.47718">
        <ele>146</ele>
        <time>2015-02-22T15:55:04Z</time>
      </trkpt>
      <trkpt lat="43.21762" lon="6.47714">
        <ele>143</ele>
        <time>2015-02-22T15:55:23Z</time>
      </trkpt>
      <trkpt lat="43.21739" lon="6.47715">
        <ele>141</ele>
        <time>2015-02-22T15:55:44Z</time>
      </trkpt>
      <trkpt lat="43.21723" lon="6.47737">
        <ele>139</ele>
        <time>2015-02-22T15:56:05Z</time>
      </trkpt>
      <trkpt lat="43.21702" lon="6.47747">
        <ele>138</ele>
        <time>2015-02-22T15:56:55Z</time>
      </trkpt>
      <trkpt lat="43.21668" lon="6.47705">
        <ele>134</ele>
        <time>2015-02-22T15:57:40Z</time>
      </trkpt>
      <trkpt lat="43.21632" lon="6.47665">
        <ele>131</ele>
        <time>2015-02-22T15:58:24Z</time>
      </trkpt>
      <trkpt lat="43.21592" lon="6.47632">
        <ele>127</ele>
        <time>2015-02-22T15:59:05Z</time>
      </trkpt>
      <trkpt lat="43.2157" lon="6.47625">
        <ele>124</ele>
        <time>2015-02-22T15:59:26Z</time>
      </trkpt>
      <trkpt lat="43.21524" lon="6.47626">
        <ele>121</ele>
        <time>2015-02-22T16:00:08Z</time>
      </trkpt>
      <trkpt lat="43.21479" lon="6.47615">
        <ele>116</ele>
        <time>2015-02-22T16:00:52Z</time>
      </trkpt>
      <trkpt lat="43.21432" lon="6.47607">
        <ele>112</ele>
        <time>2015-02-22T16:01:35Z</time>
      </trkpt>
      <trkpt lat="43.21413" lon="6.47624">
        <ele>111</ele>
        <time>2015-02-22T16:01:57Z</time>
      </trkpt>
      <trkpt lat="43.2141" lon="6.47655">
        <ele>109</ele>
        <time>2015-02-22T16:02:16Z</time>
      </trkpt>
      <trkpt lat="43.2142" lon="6.47683">
        <ele>107</ele>
        <time>2015-02-22T16:02:37Z</time>
      </trkpt>
      <trkpt lat="43.2144" lon="6.47739">
        <ele>104</ele>
        <time>2015-02-22T16:03:20Z</time>
      </trkpt>
      <trkpt lat="43.21445" lon="6.4777">
        <ele>102</ele>
        <time>2015-02-22T16:03:39Z</time>
      </trkpt>
      <trkpt lat="43.21446" lon="6.47832">
        <ele>99</ele>
        <time>2015-02-22T16:04:28Z</time>
      </trkpt>
      <trkpt lat="43.21437" lon="6.47864">
        <ele>72</ele>
        <time>2015-02-22T16:05:30Z</time>
      </trkpt>
      <trkpt lat="43.21418" lon="6.47847">
        <ele>88</ele>
        <time>2015-02-22T16:06:13Z</time>
      </trkpt>
      <trkpt lat="43.21388" lon="6.47798">
        <ele>81</ele>
        <time>2015-02-22T16:06:58Z</time>
      </trkpt>
      <trkpt lat="43.21369" lon="6.47783">
        <ele>80</ele>
        <time>2015-02-22T16:07:20Z</time>
      </trkpt>
      <trkpt lat="43.21348" lon="6.47769">
        <ele>81</ele>
        <time>2015-02-22T16:07:42Z</time>
      </trkpt>
      <trkpt lat="43.21311" lon="6.47731">
        <ele>80</ele>
        <time>2015-02-22T16:08:26Z</time>
      </trkpt>
      <trkpt lat="43.2127" lon="6.47704">
        <ele>81</ele>
        <time>2015-02-22T16:09:16Z</time>
      </trkpt>
      <trkpt lat="43.21248" lon="6.47691">
        <ele>81</ele>
        <time>2015-02-22T16:09:34Z</time>
      </trkpt>
      <trkpt lat="43.21237" lon="6.47664">
        <ele>81</ele>
        <time>2015-02-22T16:09:56Z</time>
      </trkpt>
      <trkpt lat="43.21219" lon="6.47606">
        <ele>81</ele>
        <time>2015-02-22T16:11:09Z</time>
      </trkpt>
      <trkpt lat="43.21207" lon="6.47546">
        <ele>80</ele>
        <time>2015-02-22T16:11:53Z</time>
      </trkpt>
      <trkpt lat="43.21191" lon="6.47486">
        <ele>82</ele>
        <time>2015-02-22T16:12:35Z</time>
      </trkpt>
      <trkpt lat="43.21166" lon="6.47431">
        <ele>81</ele>
        <time>2015-02-22T16:13:17Z</time>
      </trkpt>
      <trkpt lat="43.21135" lon="6.47385">
        <ele>82</ele>
        <time>2015-02-22T16:13:56Z</time>
      </trkpt>
      <trkpt lat="43.21129" lon="6.47354">
        <ele>81</ele>
        <time>2015-02-22T16:14:15Z</time>
      </trkpt>
      <trkpt lat="43.21123" lon="6.47323">
        <ele>81</ele>
        <time>2015-02-22T16:14:49Z</time>
      </trkpt>
      <trkpt lat="43.21108" lon="6.47299">
        <ele>81</ele>
        <time>2015-02-22T16:15:07Z</time>
      </trkpt>
      <trkpt lat="43.2109" lon="6.4728">
        <ele>80</ele>
        <time>2015-02-22T16:15:26Z</time>
      </trkpt>
      <trkpt lat="43.21084" lon="6.4725">
        <ele>80</ele>
        <time>2015-02-22T16:15:44Z</time>
      </trkpt>
      <trkpt lat="43.21061" lon="6.47196">
        <ele>78</ele>
        <time>2015-02-22T16:16:22Z</time>
      </trkpt>
      <trkpt lat="43.21046" lon="6.47172">
        <ele>77</ele>
        <time>2015-02-22T16:16:41Z</time>
      </trkpt>
      <trkpt lat="43.21044" lon="6.47141">
        <ele>76</ele>
        <time>2015-02-22T16:17:04Z</time>
      </trkpt>
      <trkpt lat="43.21052" lon="6.47111">
        <ele>75</ele>
        <time>2015-02-22T16:17:26Z</time>
      </trkpt>
      <trkpt lat="43.21039" lon="6.47085">
        <ele>73</ele>
        <time>2015-02-22T16:17:46Z</time>
      </trkpt>
      <trkpt lat="43.21026" lon="6.4706">
        <ele>71</ele>
        <time>2015-02-22T16:18:04Z</time>
      </trkpt>
      <trkpt lat="43.21022" lon="6.47028">
        <ele>70</ele>
        <time>2015-02-22T16:18:26Z</time>
      </trkpt>
      <trkpt lat="43.21018" lon="6.46996">
        <ele>68</ele>
        <time>2015-02-22T16:18:47Z</time>
      </trkpt>
      <trkpt lat="43.21034" lon="6.46973">
        <ele>67</ele>
        <time>2015-02-22T16:19:08Z</time>
      </trkpt>
      <trkpt lat="43.21032" lon="6.46941">
        <ele>66</ele>
        <time>2015-02-22T16:19:27Z</time>
      </trkpt>
      <trkpt lat="43.21013" lon="6.46884">
        <ele>63</ele>
        <time>2015-02-22T16:20:10Z</time>
      </trkpt>
      <trkpt lat="43.21014" lon="6.46821">
        <ele>61</ele>
        <time>2015-02-22T16:20:50Z</time>
      </trkpt>
      <trkpt lat="43.20996" lon="6.46763">
        <ele>58</ele>
        <time>2015-02-22T16:21:32Z</time>
      </trkpt>
      <trkpt lat="43.20977" lon="6.46744">
        <ele>56</ele>
        <time>2015-02-22T16:22:30Z</time>
      </trkpt>
      <trkpt lat="43.20954" lon="6.46744">
        <ele>55</ele>
        <time>2015-02-22T16:22:50Z</time>
      </trkpt>
      <trkpt lat="43.20953" lon="6.46713">
        <ele>43</ele>
        <time>2015-02-22T16:24:06Z</time>
      </trkpt>
      <trkpt lat="43.20956" lon="6.46681">
        <ele>43</ele>
        <time>2015-02-22T16:24:34Z</time>
      </trkpt>
      <trkpt lat="43.20953" lon="6.4665">
        <ele>36</ele>
        <time>2015-02-22T16:25:00Z</time>
      </trkpt>
      <trkpt lat="43.2095" lon="6.46587">
        <ele>37</ele>
        <time>2015-02-22T16:25:49Z</time>
      </trkpt>
      <trkpt lat="43.20942" lon="6.46557">
        <ele>35</ele>
        <time>2015-02-22T16:26:12Z</time>
      </trkpt>
      <trkpt lat="43.20922" lon="6.46543">
        <ele>33</ele>
        <time>2015-02-22T16:26:27Z</time>
      </trkpt>
    </trkseg>
  </trk>
</gpx>